Data for 01/07/2007

Time Sea-Level Adjusted Pressure Absolute Pressure Temperature Relative Humidity Dew Point   
(mb) (inHg) (mb) (inHg) (C) (F) (%) (C) (F)
00:05 1024 30.24 854 25.22 -7.2 19.1 51 -15.8 3.6
00:10 1024 30.24 853 25.19 -7.1 19.3 50 -15.8 3.5
00:15 1024 30.24 853 25.19 -7.2 19.1 51 -15.7 3.7
00:20 1024 30.24 854 25.22 -7.2 19.1 50 -15.9 3.4
00:25 1024 30.24 854 25.22 -7.3 18.9 49 -16.3 2.7
00:30 1024 30.24 854 25.22 -7 19.5 46 -16.7 2
00:35 1024 30.24 854 25.22 -6.7 20 46 -16.5 2.3
00:40 1024 30.24 854 25.22 -6.6 20.1 46 -16.5 2.3
00:45 1024 30.24 854 25.22 -6.6 20.1 46 -16.4 2.5
00:50 1024 30.24 854 25.22 -6.6 20.1 46 -16.4 2.5
00:55 1025 30.27 854 25.22 -6.8 19.8 47 -16.4 2.5
01:00 1025 30.27 854 25.22 -6.9 19.6 46 -16.5 2.2
01:05 1025 30.27 854 25.22 -6.8 19.8 46 -16.5 2.3
01:10 1024 30.24 854 25.22 -6.8 19.8 46 -16.6 2.2
01:15 1025 30.27 854 25.22 -6.8 19.8 46 -16.5 2.2
01:20 1024 30.24 854 25.22 -6.7 20 46 -16.6 2.2
01:25 1024 30.24 854 25.22 -6.5 20.3 44 -16.9 1.6
01:30 1024 30.24 854 25.22 -6.3 20.7 44 -16.8 1.8
01:35 1025 30.27 854 25.22 -6.3 20.6 43 -16.9 1.6
01:40 1025 30.27 854 25.22 -6.5 20.4 44 -16.8 1.7
01:45 1025 30.27 854 25.22 -6.4 20.5 44 -16.7 1.9
01:50 1025 30.27 854 25.22 -6.2 20.8 44 -16.6 2.1
01:55 1025 30.27 854 25.22 -6.3 20.6 45 -16.5 2.2
02:00 1025 30.27 854 25.22 -6.6 20.1 44 -17 1.4
02:05 1025 30.27 854 25.22 -6.8 19.7 43 -17.3 0.8
02:10 1025 30.27 854 25.22 -7 19.5 43 -17.4 0.6
02:15 1025 30.27 854 25.22 -6.9 19.5 43 -17.4 0.6
02:20 1025 30.27 854 25.22 -7 19.4 43 -17.5 0.4
02:25 1025 30.27 855 25.25 -7 19.4 43 -17.5 0.6
02:30 1025 30.27 855 25.25 -7.2 19.1 44 -17.4 0.6
02:35 1025 30.27 855 25.25 -7.3 18.8 45 -17.4 0.7
02:40 1025 30.27 855 25.25 -7.6 18.4 45 -17.7 0.2
02:45 1025 30.27 855 25.25 -8 17.6 47 -17.5 0.5
02:50 1025 30.27 855 25.25 -8.6 16.6 49 -17.5 0.5
02:55 1025 30.27 855 25.25 -8.9 16 50 -17.6 0.3
03:00 1025 30.27 854 25.22 -8.8 16.1 50 -17.4 0.6
03:05 1025 30.27 854 25.22 -8.5 16.7 49 -17.4 0.8
03:10 1025 30.27 854 25.22 -8.2 17.2 49 -17.1 1.1
03:15 1025 30.27 854 25.22 -7.9 17.8 48 -17.1 1.2
03:20 1025 30.27 854 25.22 -7.6 18.3 47 -17 1.4
03:25 1025 30.27 854 25.22 -7.4 18.6 47 -16.9 1.5
03:30 1025 30.27 854 25.22 -7.2 19 46 -17 1.5
03:35 1025 30.27 855 25.25 -7.2 19.1 47 -16.7 1.9
03:40 1025 30.27 855 25.25 -7.2 19.1 47 -16.8 1.8
03:45 1025 30.27 855 25.25 -7.1 19.2 47 -16.6 2.1
03:50 1025 30.27 854 25.22 -7.1 19.2 47 -16.5 2.3
03:55 1025 30.27 854 25.22 -7 19.5 47 -16.5 2.3
04:00 1025 30.27 854 25.22 -6.8 19.7 46 -16.5 2.2
04:05 1025 30.27 854 25.22 -6.8 19.7 47 -16.3 2.7
04:10 1025 30.27 854 25.22 -6.9 19.6 48 -16.1 3
04:15 1025 30.27 854 25.22 -7.1 19.3 49 -16.1 3
04:20 1025 30.27 854 25.22 -7 19.5 48 -16.1 3
04:25 1025 30.27 854 25.22 -6.9 19.6 49 -15.9 3.3
04:30 1025 30.27 854 25.22 -7 19.4 49 -16 3.3
04:35 1025 30.27 854 25.22 -6.8 19.8 49 -15.8 3.6
04:40 1025 30.27 854 25.22 -6.9 19.7 49 -15.9 3.4
04:45 1025 30.27 854 25.22 -6.7 19.9 49 -15.8 3.5
04:50 1025 30.27 854 25.22 -6.6 20.1 48 -16 3.1
04:55 1025 30.27 854 25.22 -6.5 20.3 47 -16.1 2.9
05:00 1025 30.27 854 25.22 -6.5 20.4 47 -16 3.1
05:05 1025 30.27 854 25.22 -6.5 20.4 47 -16 3.2
05:10 1025 30.27 854 25.22 -6.3 20.6 46 -16.2 2.8
05:15 1025 30.27 854 25.22 -6.2 20.8 46 -15.9 3.3
05:20 1025 30.27 854 25.22 -6.2 20.8 45 -16.2 2.9
05:25 1025 30.27 854 25.22 -6.2 20.9 46 -16 3.2
05:30 1025 30.27 854 25.22 -6.3 20.7 46 -16.1 3
05:35 1025 30.27 854 25.22 -6.3 20.7 47 -15.9 3.4
05:40 1025 30.27 854 25.22 -6.4 20.5 47 -15.9 3.4
05:45 1025 30.27 854 25.22 -6.3 20.6 47 -15.9 3.3
05:50 1025 30.27 854 25.22 -6.2 20.8 46 -16.1 3.1
05:55 1024 30.24 854 25.22 -6.2 20.9 46 -15.9 3.4
06:00 1024 30.24 854 25.22 -6.2 20.8 46 -16.1 3
06:05 1024 30.24 854 25.22 -6.3 20.7 46 -16.2 2.9
06:10 1024 30.24 854 25.22 -6.3 20.6 45 -16.3 2.7
06:15 1024 30.24 854 25.22 -6.4 20.5 46 -16.1 2.9
06:20 1024 30.24 853 25.19 -6.4 20.5 46 -16.2 2.8
06:25 1024 30.24 853 25.19 -6.2 20.8 45 -16.4 2.5
06:30 1024 30.24 853 25.19 -6.1 20.9 45 -16.3 2.6
06:35 1024 30.24 853 25.19 -6.2 20.8 46 -16.2 2.9
06:40 1024 30.24 853 25.19 -6.3 20.6 46 -16.2 2.8
06:45 1024 30.24 853 25.19 -6.3 20.7 46 -16.2 2.9
06:50 1024 30.24 853 25.19 -6.4 20.6 46 -16.2 2.9
06:55 1024 30.24 853 25.19 -6.4 20.4 47 -16.1 3
07:00 1024 30.24 853 25.19 -6.5 20.2 47 -16.2 2.9
07:05 1024 30.24 853 25.19 -6.5 20.3 46 -16.3 2.7
07:10 1024 30.24 853 25.19 -6.6 20.1 46 -16.3 2.7
07:15 1024 30.24 853 25.19 -6.6 20.2 47 -16.2 2.8
07:20 1024 30.24 853 25.19 -6.4 20.4 46 -16.4 2.5
07:25 1024 30.24 853 25.19 -6.3 20.6 46 -16 3.1
07:30 1024 30.24 853 25.19 -6.5 20.3 47 -15.9 3.3
07:35 1024 30.24 853 25.19 -6.8 19.8 49 -15.9 3.5
07:40 1024 30.24 853 25.19 -6.9 19.6 50 -15.6 4
07:45 1024 30.24 853 25.19 -6.9 19.5 51 -15.3 4.4
07:50 1024 30.24 853 25.19 -7 19.3 52 -15.3 4.4
07:55 1024 30.24 853 25.19 -7 19.4 52 -15.3 4.5
08:00 1023 30.21 853 25.19 -6.9 19.7 50 -15.6 4
08:05 1023 30.21 853 25.19 -6.6 20.1 49 -15.7 3.7
08:10 1023 30.21 853 25.19 -6.4 20.4 50 -15.4 4.3
08:15 1023 30.21 853 25.19 -6.4 20.4 49 -15.5 4.1
08:20 1023 30.21 853 25.19 -6.4 20.6 48 -15.6 3.9
08:25 1023 30.21 853 25.19 -6.2 20.8 48 -15.5 4
08:30 1023 30.21 853 25.19 -6.1 21 47 -15.6 3.9
08:35 1023 30.21 853 25.19 -5.8 21.5 47 -15.4 4.3
08:40 1024 30.24 853 25.19 -5.7 21.7 47 -15.4 4.2
08:45 1023 30.21 853 25.19 -5.7 21.7 46 -15.6 3.9
08:50 1023 30.21 853 25.19 -5.6 21.9 47 -15.2 4.6
08:55 1023 30.21 853 25.19 -5.5 22 47 -15.1 4.9
09:00 1023 30.21 852 25.16 -5.4 22.2 48 -14.9 5.1
09:05 1023 30.21 852 25.16 -5.4 22.2 48 -14.8 5.4
09:10 1023 30.21 852 25.16 -5.4 22.3 48 -14.9 5.2
09:15 1023 30.21 852 25.16 -5.4 22.2 48 -14.9 5.2
09:20 1023 30.21 852 25.16 -5.5 22.1 49 -14.6 5.7
09:25 1023 30.21 852 25.16 -5.4 22.2 51 -14.1 6.6
09:30 1023 30.21 852 25.16 -5.4 22.3 50 -14.2 6.4
09:35 1023 30.21 852 25.16 -5.3 22.4 52 -13.8 7.1
09:40 1023 30.21 852 25.16 -5.3 22.5 49 -14.3 6.3
09:45 1023 30.21 852 25.16 -5.2 22.6 49 -14.4 6.1
09:50 1022 30.18 852 25.16 -5.2 22.6 49 -14.3 6.3
09:55 1022 30.18 852 25.16 -5.2 22.7 49 -14.4 6.1
10:00 1022 30.18 852 25.16 -5 23 48 -14.4 6.1
10:05 1022 30.18 851 25.13 -5 23 49 -14.3 6.3
10:10 1022 30.18 851 25.13 -5 23 50 -14 6.9
10:15 1022 30.18 851 25.13 -5 23 52 -13.3 8.1
10:20 1022 30.18 851 25.13 -5.1 22.9 55 -12.8 9
10:25 1022 30.18 851 25.13 -5.3 22.5 55 -13 8.5
10:30 1021 30.15 851 25.13 -5.5 22.1 55 -13.2 8.2
10:35 1021 30.15 851 25.13 -5.6 21.9 53 -13.8 7.1
10:40 1022 30.18 851 25.13 -5.7 21.8 53 -13.9 7
10:45 1022 30.18 851 25.13 -5.5 22.1 52 -14 6.8
10:50 1022 30.18 851 25.13 -5.2 22.6 49 -14.3 6.2
10:55 1022 30.18 851 25.13 -4.8 23.4 46 -14.7 5.5
11:00 1021 30.15 851 25.13 -4.4 24.1 45 -14.7 5.5
11:05 1021 30.15 850 25.1 -4.1 24.6 45 -14.3 6.3
11:10 1021 30.15 850 25.1 -3.8 25.2 44 -14.3 6.3
11:15 1021 30.15 850 25.1 -3.4 25.8 43 -14.2 6.4
11:20 1021 30.15 850 25.1 -3.3 26.1 43 -14.2 6.4
11:25 1021 30.15 850 25.1 -3.1 26.4 43 -13.9 7
11:30 1021 30.15 850 25.1 -3 26.7 43 -13.9 7
11:35 1021 30.15 850 25.1 -3 26.6 43 -14.1 6.7
11:40 1021 30.15 850 25.1 -2.9 26.8 44 -13.5 7.7
11:45 1020 30.12 850 25.1 -2.7 27.2 44 -13.4 7.8
11:50 1020 30.12 849 25.07 -2.6 27.3 41 -14.2 6.5
11:55 1020 30.12 849 25.07 -2.5 27.5 44 -13.2 8.3
12:00 1020 30.12 849 25.07 -2.7 27.2 44 -13.4 8
12:05 1020 30.12 849 25.07 -2.8 26.9 44 -13.4 7.9
12:10 1020 30.12 849 25.07 -3 26.6 44 -13.7 7.3
12:15 1020 30.12 849 25.07 -2.6 27.4 44 -13.3 8
12:20 1020 30.12 849 25.07 -2.3 27.9 43 -13.2 8.2
12:25 1020 30.12 849 25.07 -2 28.4 42 -13.2 8.3
12:30 1020 30.12 849 25.07 -1.8 28.7 43 -12.8 8.9
12:35 1019 30.09 849 25.07 -1.7 28.9 44 -12.5 9.5
12:40 1019 30.09 848 25.04 -1.7 28.9 48 -11.4 11.4
12:45 1019 30.09 848 25.04 -1.5 29.2 49 -10.9 12.4
12:50 1019 30.09 848 25.04 -0.7 30.7 47 -10.7 12.7
12:55 1019 30.09 848 25.04 -0.2 31.6 45 -10.7 12.7
13:00 1018 30.06 848 25.04 -0 31.9 44 -11 12.3
13:05 1018 30.06 848 25.04 0.2 32.3 43 -10.9 12.4
13:10 1018 30.06 847 25.01 0.4 32.7 43 -10.8 12.6
13:15 1018 30.06 847 25.01 0.3 32.6 42 -11.3 11.7
13:20 1018 30.06 847 25.01 0.3 32.5 45 -10.4 13.3
13:25 1018 30.06 847 25.01 0.3 32.6 44 -10.5 13.1
13:30 1018 30.06 847 25.01 0.5 32.8 44 -10.4 13.2
13:35 1018 30.06 847 25.01 0.6 33.1 44 -10.2 13.6
13:40 1018 30.06 847 25.01 0.5 32.8 46 -9.9 14.2
13:45 1018 30.06 847 25.01 1.1 34 44 -9.9 14.2
13:50 1017 30.03 847 25.01 1.6 34.9 42 -9.8 14.3
13:55 1017 30.03 847 25.01 1.7 35 42 -9.8 14.3
14:00 1017 30.03 846 24.98 1.7 35 43 -9.6 14.7
14:05 1017 30.03 846 24.98 1.7 35.1 42 -9.8 14.4
14:10 1017 30.03 846 24.98 1.8 35.3 42 -9.9 14.2
14:15 1017 30.03 846 24.98 2 35.6 42 -9.5 14.8
14:20 1017 30.03 846 24.98 1.8 35.3 42 -9.6 14.7
14:25 1017 30.03 846 24.98 2 35.7 41 -9.8 14.4
14:30 1016 30 846 24.98 2.1 35.7 42 -9.7 14.6
14:35 1016 30 846 24.98 2.4 36.2 41 -9.6 14.7
14:40 1016 30 846 24.98 2.4 36.4 41 -9.4 15
14:45 1016 30 846 24.98 2.5 36.6 41 -9.6 14.8
14:50 1016 30 846 24.98 2.7 36.8 40 -9.8 14.4
14:55 1017 30.03 846 24.98 2.7 36.8 37 -10.6 12.9
15:00 1017 30.03 846 24.98 2.8 37.1 39 -9.9 14.1
15:05 1017 30.03 846 24.98 2.8 37.1 38 -10.2 13.6
15:10 1017 30.03 846 24.98 2.8 37.1 38 -10.1 13.8
15:15 1017 30.03 846 24.98 2.8 37 38 -10 14
15:20 1017 30.03 846 24.98 2.7 36.9 38 -10.2 13.6
15:25 1016 30 846 24.98 2.8 37 39 -9.7 14.5
15:30 1016 30 846 24.98 2.8 37 39 -9.7 14.5
15:35 1017 30.03 846 24.98 2.8 37 41 -9.3 15.2
15:40 1016 30 846 24.98 2.6 36.7 41 -9.5 15
15:45 1016 30 846 24.98 2.7 36.8 43 -8.8 16.2
15:50 1016 30 846 24.98 2.6 36.8 42 -9.1 15.7
15:55 1017 30.03 846 24.98 2.6 36.7 43 -8.7 16.4
16:00 1017 30.03 846 24.98 2.6 36.7 42 -9 15.8
16:05 1017 30.03 846 24.98 2.7 36.9 42 -8.9 16.1
16:10 1017 30.03 846 24.98 3 37.3 41 -9.2 15.5
16:15 1017 30.03 846 24.98 3 37.4 41 -8.9 15.9
16:20 1017 30.03 846 24.98 3 37.3 39 -9.5 14.8
16:25 1017 30.03 846 24.98 3 37.4 41 -8.9 16
16:30 1017 30.03 846 24.98 2.9 37.3 41 -9 15.7
16:35 1017 30.03 846 24.98 3.1 37.5 41 -8.8 16.2
16:40 1017 30.03 846 24.98 3.2 37.8 41 -8.8 16.2
16:45 1017 30.03 846 24.98 3.1 37.7 42 -8.7 16.3
16:50 1017 30.03 846 24.98 3.2 37.8 40 -9 15.8
16:55 1017 30.03 846 24.98 3.5 38.2 40 -8.9 16
17:00 1017 30.03 846 24.98 3.4 38.2 41 -8.5 16.7
17:05 1017 30.03 846 24.98 3.3 38 41 -8.6 16.5
17:10 1017 30.03 846 24.98 3.2 37.8 41 -8.7 16.3
17:15 1017 30.03 846 24.98 3.4 38 40 -9 15.8
17:20 1017 30.03 846 24.98 3.4 38.1 42 -8.3 17.1
17:25 1017 30.03 846 24.98 3.4 38.1 41 -8.7 16.3
17:30 1017 30.03 846 24.98 3.2 37.8 44 -7.9 17.8
17:35 1017 30.03 846 24.98 2.9 37.3 44 -8 17.5
17:40 1017 30.03 846 24.98 3 37.4 43 -8.4 16.8
17:45 1017 30.03 846 24.98 3.1 37.5 43 -8.2 17.2
17:50 1017 30.03 846 24.98 3.1 37.6 44 -8.1 17.4
17:55 1017 30.03 846 24.98 3.1 37.6 43 -8.3 17
18:00 1016 30 846 24.98 3.2 37.8 43 -8.2 17.2
18:05 1016 30 846 24.98 3.1 37.6 45 -7.8 17.9
18:10 1017 30.03 846 24.98 3 37.4 44 -8.2 17.3
18:15 1016 30 846 24.98 3.2 37.7 43 -8.2 17.3
18:20 1016 30 846 24.98 3.2 37.8 45 -7.6 18.4
18:25 1016 30 846 24.98 3.1 37.6 44 -8.2 17.3
18:30 1017 30.03 846 24.98 3.3 37.9 44 -8 17.6
18:35 1016 30 846 24.98 3.3 38 44 -7.7 18.1
18:40 1016 30 846 24.98 3.4 38.1 43 -7.9 17.7
18:45 1017 30.03 846 24.98 3.4 38 46 -7.3 18.9
18:50 1016 30 846 24.98 3.5 38.2 44 -7.8 18
18:55 1016 30 845 24.95 3.5 38.3 45 -7.5 18.5
19:00 1016 30 845 24.95 3.5 38.3 45 -7.4 18.7
19:05 1016 30 846 24.98 3.6 38.6 44 -7.6 18.3
19:10 1016 30 845 24.95 3.7 38.6 44 -7.4 18.7
19:15 1016 30 846 24.98 3.6 38.5 44 -7.4 18.7
19:20 1016 30 846 24.98 3.6 38.5 44 -7.4 18.7
19:25 1016 30 846 24.98 3.6 38.5 46 -7.1 19.3
19:30 1016 30 845 24.95 3.7 38.7 44 -7.5 18.4
19:35 1016 30 846 24.98 4 39.1 43 -7.5 18.5
19:40 1016 30 845 24.95 3.9 39.1 44 -7.3 18.9
19:45 1016 30 845 24.95 3.8 38.9 44 -7.3 18.9
19:50 1016 30 846 24.98 3.8 38.8 45 -7.2 19.1
19:55 1016 30 846 24.98 3.7 38.7 45 -7.1 19.3
20:00 1017 30.03 846 24.98 3.8 38.8 44 -7.3 18.9
20:05 1016 30 846 24.98 4 39.2 44 -7.3 18.9
20:10 1016 30 846 24.98 4 39.2 44 -7.2 19
20:15 1016 30 846 24.98 4 39.3 43 -7.4 18.7
20:20 1016 30 846 24.98 4.1 39.4 44 -7 19.3
20:25 1017 30.03 846 24.98 3.9 39.1 46 -6.6 20.2
20:30 1016 30 846 24.98 3.8 38.9 46 -6.8 19.8
20:35 1016 30 846 24.98 3.8 38.9 47 -6.6 20.2
20:40 1016 30 846 24.98 3.8 38.9 47 -6.5 20.3
20:45 1016 30 846 24.98 4 39.1 46 -6.7 19.9
20:50 1016 30 846 24.98 3.9 39 48 -6.2 20.8
20:55 1016 30 846 24.98 3.9 39 45 -6.9 19.7
21:00 1016 30 846 24.98 4.1 39.3 46 -6.6 20.2
21:05 1016 30 845 24.95 4.3 39.8 44 -6.8 19.7
21:10 1016 30 845 24.95 4.4 39.9 45 -6.6 20
21:15 1016 30 845 24.95 4.2 39.6 47 -6.2 20.8
21:20 1016 30 845 24.95 4.1 39.3 46 -6.6 20.1
21:25 1016 30 845 24.95 4.2 39.6 45 -6.7 19.9
21:30 1016 30 845 24.95 4.2 39.6 45 -6.6 20.1
21:35 1016 30 845 24.95 4.4 39.9 45 -6.6 20.1
21:40 1016 30 845 24.95 4.3 39.8 45 -6.4 20.4
21:45 1016 30 845 24.95 4.4 39.9 44 -6.9 19.6
21:50 1016 30 845 24.95 4.6 40.3 43 -6.8 19.7
21:55 1016 30 845 24.95 4.5 40.1 45 -6.5 20.4
22:00 1016 30 845 24.95 4.5 40.1 44 -6.9 19.6
22:05 1016 30 845 24.95 4.5 40.1 44 -6.6 20.1
22:10 1016 30 845 24.95 4.4 39.9 45 -6.5 20.4
22:15 1016 30 846 24.98 4.3 39.8 46 -6.2 20.9
22:20 1016 30 846 24.98 4.3 39.7 45 -6.5 20.3
22:25 1016 30 846 24.98 4.2 39.5 46 -6.3 20.6
22:30 1016 30 845 24.95 4.3 39.7 46 -6.4 20.5
22:35 1016 30 846 24.98 4.1 39.5 48 -5.9 21.3
22:40 1016 30 846 24.98 4 39.2 48 -6 21.1
22:45 1017 30.03 846 24.98 4 39.2 47 -6.4 20.4
22:50 1017 30.03 846 24.98 4.1 39.4 48 -6 21.2
22:55 1016 30 846 24.98 3.9 38.9 48 -6 21.1
23:00 1016 30 846 24.98 4 39.2 48 -5.9 21.4
23:05 1017 30.03 846 24.98 4.1 39.3 48 -6 21.2
23:10 1016 30 846 24.98 4.1 39.3 48 -6.1 21
23:15 1017 30.03 846 24.98 4.2 39.5 47 -6.1 21.1
23:20 1016 30 846 24.98 4.1 39.4 48 -6 21.2
23:25 1016 30 846 24.98 4.2 39.6 47 -6 21.2
23:30 1016 30 845 24.95 4.1 39.5 49 -5.5 22.1
23:35 1016 30 845 24.95 4 39.2 48 -6 21.3
23:40 1016 30 845 24.95 4.1 39.4 48 -6 21.3
23:45 1016 30 845 24.95 4.2 39.5 48 -5.9 21.4
23:50 1016 30 846 24.98 4.3 39.7 47 -6.1 21.1
23:55 1017 30.03 846 24.98 4.4 39.8 47 -6.1 21
24:00 1016 30 846 24.98 4.3 39.8 46 -6.2 20.9